createdAt,value
2019-05-23T00:00:46.871Z,9.07
2019-05-23T00:02:50.512Z,8.40
2019-05-23T00:04:56.151Z,8.77
2019-05-23T00:07:02.009Z,8.07
2019-05-23T00:09:06.758Z,8.50
2019-05-23T00:11:32.633Z,8.77
2019-05-23T00:13:43.645Z,9.37
2019-05-23T00:15:49.174Z,9.50
2019-05-23T00:17:53.028Z,9.37
2019-05-23T00:19:57.197Z,9.90
2019-05-23T00:22:01.366Z,9.53
2019-05-23T00:24:04.932Z,9.93
2019-05-23T00:26:08.472Z,9.80
2019-05-23T00:28:12.745Z,9.90
2019-05-23T00:30:18.150Z,9.67
2019-05-23T00:32:29.803Z,9.97
2019-05-23T00:34:34.842Z,9.47
2019-05-23T00:36:38.451Z,9.73
2019-05-23T00:38:42.021Z,9.90
2019-05-23T00:40:48.342Z,9.13
2019-05-23T00:42:52.238Z,9.97
2019-05-23T00:44:55.944Z,9.60
2019-05-23T00:46:59.575Z,8.97
2019-05-23T00:49:03.126Z,9.60
2019-05-23T00:51:06.898Z,8.93
2019-05-23T00:53:10.799Z,8.83
2019-05-23T00:55:14.533Z,9.27
2019-05-23T00:57:18.945Z,9.97
2019-05-23T00:59:27.180Z,9.07
2019-05-23T01:01:29.776Z,9.73
2019-05-23T01:03:33.475Z,9.70
2019-05-23T01:05:38.103Z,9.80
2019-05-23T01:07:43.622Z,9.67
2019-05-23T01:09:48.099Z,9.97
2019-05-23T01:11:51.655Z,9.27
2019-05-23T01:13:56.117Z,9.03
2019-05-23T01:15:59.993Z,8.70
2019-05-23T01:18:04.102Z,8.90
2019-05-23T01:20:10.124Z,9.23
2019-05-23T01:22:14.509Z,9.03
2019-05-23T01:24:19.740Z,8.13
2019-05-23T01:26:23.360Z,8.63
2019-05-23T01:28:27.660Z,8.37
2019-05-23T01:30:35.148Z,9.10
2019-05-23T01:32:46.597Z,9.30
2019-05-23T01:34:50.948Z,9.00
2019-05-23T01:36:54.460Z,8.57
2019-05-23T01:38:57.957Z,9.33
2019-05-23T01:41:01.761Z,8.90
2019-05-23T01:43:05.381Z,9.07
2019-05-23T01:45:09.897Z,9.10
2019-05-23T01:47:13.958Z,9.40
2019-05-23T01:49:18.663Z,8.70
2019-05-23T01:51:22.657Z,9.20
2019-05-23T01:53:26.360Z,9.53
2019-05-23T01:55:30.304Z,9.23
2019-05-23T01:57:33.778Z,9.20
2019-05-23T01:59:37.363Z,9.07
2019-05-23T02:01:40.865Z,8.87
2019-05-23T02:03:44.921Z,8.73
2019-05-23T02:05:48.819Z,9.20
2019-05-23T02:07:52.923Z,8.43
2019-05-23T02:09:56.513Z,8.80
2019-05-23T02:12:01.093Z,8.77
2019-05-23T02:14:05.754Z,8.00
2019-05-23T02:16:12.147Z,7.97
2019-05-23T02:18:15.585Z,8.37
2019-05-23T02:20:20.401Z,7.47
2019-05-23T02:22:24.674Z,8.60
2019-05-23T02:24:28.785Z,8.73
2019-05-23T02:26:32.328Z,7.97
2019-05-23T02:28:35.817Z,8.30
2019-05-23T02:30:40.628Z,8.43
2019-05-23T02:32:44.793Z,9.07
2019-05-23T02:34:49.120Z,8.37
2019-05-23T02:36:53.198Z,8.03
2019-05-23T02:38:58.328Z,8.53
2019-05-23T02:41:06.738Z,8.17
2019-05-23T02:43:14.226Z,8.50
2019-05-23T02:45:24.021Z,7.90
2019-05-23T02:47:29.821Z,8.23
2019-05-23T02:49:34.511Z,7.83
2019-05-23T02:51:39.291Z,8.17
2019-05-23T02:53:44.184Z,8.80
2019-05-23T02:55:50.939Z,8.43
2019-05-23T02:57:57.463Z,8.23
2019-05-23T03:00:04.868Z,8.13
2019-05-23T03:02:40.045Z,7.90
2019-05-23T03:04:44.798Z,8.83
2019-05-23T03:06:48.268Z,7.83
2019-05-23T03:08:52.294Z,9.07
2019-05-23T03:11:00.436Z,7.47
2019-05-23T03:13:03.937Z,7.87
2019-05-23T03:15:10.946Z,8.00
2019-05-23T03:17:17.868Z,7.90
2019-05-23T03:19:27.163Z,7.97
2019-05-23T03:21:30.861Z,8.20
2019-05-23T03:23:34.345Z,7.73
2019-05-23T03:25:41.413Z,8.50
2019-05-23T03:27:45.614Z,8.27
2019-05-23T03:29:49.172Z,8.20
2019-05-23T03:32:00.871Z,7.93
2019-05-23T03:34:05.526Z,8.00
2019-05-23T03:36:10.007Z,8.30
2019-05-23T03:38:14.480Z,7.33
2019-05-23T03:40:19.703Z,8.43
2019-05-23T03:42:23.694Z,7.73
2019-05-23T03:44:28.963Z,7.73
2019-05-23T03:46:34.098Z,8.57
2019-05-23T03:48:38.413Z,8.10
2019-05-23T03:50:43.849Z,7.70
2019-05-23T03:52:48.982Z,7.63
2019-05-23T03:54:54.063Z,8.10
2019-05-23T03:56:59.648Z,8.43
2019-05-23T03:59:04.681Z,7.43
2019-05-23T04:01:10.271Z,8.10
2019-05-23T04:03:14.303Z,8.17
2019-05-23T04:05:18.537Z,8.30
2019-05-23T04:07:22.917Z,7.80
2019-05-23T04:09:26.684Z,8.10
2019-05-23T04:11:30.283Z,8.07
2019-05-23T04:13:34.139Z,8.23
2019-05-23T04:15:37.807Z,7.50
2019-05-23T04:17:41.699Z,8.33
2019-05-23T04:19:46.189Z,8.43
2019-05-23T04:21:49.784Z,7.13
2019-05-23T04:23:53.295Z,7.57
2019-05-23T04:25:56.791Z,7.37
2019-05-23T04:28:00.609Z,7.20
2019-05-23T04:30:06.304Z,7.77
2019-05-23T04:32:09.918Z,7.67
2019-05-23T04:34:13.599Z,7.30
2019-05-23T04:36:17.445Z,6.90
2019-05-23T04:38:21.028Z,7.23
2019-05-23T04:40:24.963Z,7.20
2019-05-23T04:42:28.886Z,6.93
2019-05-23T04:44:32.601Z,6.40
2019-05-23T04:46:36.175Z,7.43
2019-05-23T04:48:39.965Z,8.00
2019-05-23T04:50:43.478Z,7.47
2019-05-23T04:52:47.448Z,8.60
2019-05-23T04:54:50.967Z,7.83
2019-05-23T04:56:54.834Z,7.87
2019-05-23T04:58:58.669Z,7.97
2019-05-23T05:01:02.619Z,7.17
2019-05-23T05:03:06.678Z,7.97
2019-05-23T05:05:11.701Z,8.00
2019-05-23T05:07:15.128Z,7.93
2019-05-23T05:09:20.347Z,7.60
2019-05-23T05:11:23.785Z,8.60
2019-05-23T05:13:27.932Z,7.43
2019-05-23T05:15:31.751Z,7.80
2019-05-23T05:17:35.419Z,7.60
2019-05-23T05:19:38.871Z,8.10
2019-05-23T05:21:42.304Z,8.07
2019-05-23T05:23:45.733Z,8.20
2019-05-23T05:25:49.247Z,7.67
2019-05-23T05:27:52.753Z,8.37
2019-05-23T05:29:56.199Z,8.70
2019-05-23T05:32:03.431Z,8.60
2019-05-23T05:34:05.331Z,9.27
2019-05-23T05:36:08.935Z,8.20
2019-05-23T05:38:12.642Z,8.87
2019-05-23T05:40:16.622Z,7.87
2019-05-23T05:42:20.439Z,8.43
2019-05-23T05:44:24.140Z,8.37
2019-05-23T05:46:27.600Z,8.73
2019-05-23T05:48:31.939Z,8.37
2019-05-23T05:50:35.429Z,8.57
2019-05-23T05:52:40.205Z,8.73
2019-05-23T05:54:44.023Z,8.73
2019-05-23T05:56:47.471Z,9.10
2019-05-23T05:58:51.216Z,9.47
2019-05-23T06:00:56.479Z,8.73
2019-05-23T06:03:05.254Z,9.43
2019-05-23T06:05:09.193Z,9.20
2019-05-23T06:07:23.015Z,9.43
2019-05-23T06:09:30.803Z,10.83
2019-05-23T06:11:34.932Z,10.13
2019-05-23T06:13:38.431Z,11.30
2019-05-23T06:15:42.136Z,11.47
2019-05-23T06:17:46.036Z,10.73
2019-05-23T06:19:50.110Z,12.20
2019-05-23T06:21:53.733Z,12.00
2019-05-23T06:23:57.511Z,11.37
2019-05-23T06:26:01.095Z,10.57
2019-05-23T06:28:04.619Z,11.93
2019-05-23T06:30:11.478Z,12.40
2019-05-23T06:32:16.350Z,12.30
2019-05-23T06:34:19.861Z,13.73
2019-05-23T06:36:23.575Z,14.07
2019-05-23T06:38:27.296Z,14.17
2019-05-23T06:40:30.970Z,13.00
2019-05-23T06:42:34.720Z,13.27
2019-05-23T06:44:39.147Z,14.00
2019-05-23T06:46:43.027Z,14.47
2019-05-23T06:48:46.516Z,13.57
2019-05-23T06:50:50.549Z,12.77
2019-05-23T06:52:54.142Z,13.20
2019-05-23T06:54:59.678Z,14.07
2019-05-23T06:57:02.745Z,13.83
2019-05-23T06:59:06.743Z,14.17
2019-05-23T07:01:10.344Z,13.03
2019-05-23T07:03:15.290Z,12.93
2019-05-23T07:05:22.322Z,13.50
2019-05-23T07:07:26.023Z,14.73
2019-05-23T07:09:29.891Z,14.03
2019-05-23T07:11:33.331Z,12.23
2019-05-23T07:13:36.849Z,9.67
2019-05-23T07:15:40.408Z,9.47
2019-05-23T07:17:44.093Z,9.57
2019-05-23T07:19:47.683Z,9.37
2019-05-23T07:21:51.109Z,7.40
2019-05-23T07:23:54.698Z,8.27
2019-05-23T07:25:58.210Z,7.87
2019-05-23T07:28:01.908Z,7.13
2019-05-23T07:30:12.131Z,7.07
2019-05-23T07:32:15.927Z,6.50
2019-05-23T07:34:20.289Z,7.07
2019-05-23T07:36:23.995Z,6.53
2019-05-23T07:38:27.501Z,6.73
2019-05-23T07:40:31.311Z,5.17
2019-05-23T07:42:34.947Z,4.87
2019-05-23T07:44:47.821Z,4.53
2019-05-23T07:46:44.612Z,5.50
2019-05-23T07:48:51.254Z,5.30
2019-05-23T07:50:54.887Z,4.77
2019-05-23T07:52:58.901Z,4.47
2019-05-23T07:55:12.736Z,4.67
2019-05-23T07:57:16.294Z,5.27
2019-05-23T07:59:19.749Z,4.67
2019-05-23T08:01:34.294Z,4.77
2019-05-23T08:03:39.729Z,4.97
2019-05-23T08:05:43.733Z,5.60
2019-05-23T08:07:48.051Z,5.77
2019-05-23T08:09:52.157Z,5.80
2019-05-23T08:11:55.866Z,5.20
2019-05-23T08:14:00.132Z,5.23
2019-05-23T08:16:03.721Z,5.60
2019-05-23T08:18:07.211Z,5.13
2019-05-23T08:20:17.402Z,5.57
2019-05-23T08:22:21.113Z,3.60
2019-05-23T08:24:24.754Z,4.27
2019-05-23T08:26:28.716Z,4.63
2019-05-23T08:28:33.044Z,4.37
2019-05-23T08:30:36.615Z,4.00
2019-05-23T08:32:40.079Z,3.73
2019-05-23T08:34:43.828Z,3.73
2019-05-23T08:36:47.461Z,3.60
2019-05-23T08:38:50.964Z,3.27
2019-05-23T08:40:54.676Z,3.03
2019-05-23T08:42:58.248Z,3.20
2019-05-23T08:45:02.038Z,2.80
2019-05-23T08:47:07.244Z,3.60
2019-05-23T08:49:10.944Z,3.43
2019-05-23T08:51:16.488Z,3.50
2019-05-23T08:53:19.992Z,4.27
2019-05-23T08:55:25.820Z,3.70
2019-05-23T08:57:30.025Z,3.83
2019-05-23T08:59:33.684Z,3.07
2019-05-23T09:01:37.202Z,2.97
2019-05-23T09:03:40.773Z,3.40
2019-05-23T09:05:44.664Z,3.70
2019-05-23T09:07:48.177Z,3.40
2019-05-23T09:09:52.411Z,3.90
2019-05-23T09:11:57.180Z,3.27
2019-05-23T09:14:03.668Z,3.33
2019-05-23T09:16:07.563Z,3.83
2019-05-23T09:18:11.593Z,4.00
2019-05-23T09:20:16.269Z,3.70
2019-05-23T09:22:19.723Z,4.30
2019-05-23T09:24:23.219Z,3.67
2019-05-23T09:26:27.064Z,4.53
2019-05-23T09:28:30.521Z,4.20
2019-05-23T09:30:34.166Z,4.30
2019-05-23T09:32:37.816Z,4.37
2019-05-23T09:34:41.319Z,4.20
2019-05-23T09:36:44.742Z,4.10
2019-05-23T09:38:48.220Z,4.07
2019-05-23T09:40:51.717Z,4.10
2019-05-23T09:42:55.247Z,4.13
2019-05-23T09:44:58.738Z,4.60
2019-05-23T09:47:03.382Z,4.27
2019-05-23T09:49:11.348Z,4.57
2019-05-23T09:51:15.216Z,4.30
2019-05-23T09:53:19.570Z,3.93
2019-05-23T09:55:23.692Z,4.00
2019-05-23T09:57:27.267Z,3.60
2019-05-23T09:59:30.903Z,4.50
2019-05-23T10:01:34.476Z,3.83
2019-05-23T10:03:37.910Z,3.80
2019-05-23T10:05:44.071Z,3.77
2019-05-23T10:07:47.102Z,3.47
2019-05-23T10:09:50.572Z,3.87
2019-05-23T10:11:56.997Z,4.17
2019-05-23T10:14:01.393Z,4.60
2019-05-23T10:16:06.666Z,4.27
2019-05-23T10:18:14.983Z,3.80
2019-05-23T10:20:18.717Z,4.63
2019-05-23T10:22:22.273Z,4.40
2019-05-23T10:24:25.866Z,4.33
2019-05-23T10:26:29.525Z,4.67
2019-05-23T10:28:33.099Z,3.93
2019-05-23T10:30:37.031Z,3.90
2019-05-23T10:32:40.448Z,4.77
2019-05-23T10:34:43.973Z,4.77
2019-05-23T10:36:47.469Z,4.20
2019-05-23T10:38:51.020Z,3.90
2019-05-23T10:40:54.616Z,3.70
2019-05-23T10:42:58.315Z,4.47
2019-05-23T10:45:01.870Z,4.10
2019-05-23T10:47:05.346Z,4.13
2019-05-23T10:49:09.027Z,4.10
2019-05-23T10:51:12.577Z,4.10
2019-05-23T10:53:16.893Z,4.60
2019-05-23T10:55:20.424Z,4.40
2019-05-23T10:57:24.837Z,4.53
2019-05-23T10:59:28.430Z,4.20
2019-05-23T11:01:32.136Z,4.70
2019-05-23T11:03:36.408Z,3.83
2019-05-23T11:05:40.081Z,3.77
2019-05-23T11:07:43.836Z,3.57
2019-05-23T11:09:47.375Z,4.43
2019-05-23T11:11:51.535Z,4.00
2019-05-23T11:13:56.828Z,3.70
2019-05-23T11:16:01.109Z,3.67
2019-05-23T11:18:04.958Z,3.93
2019-05-23T11:20:08.858Z,3.67
2019-05-23T11:22:12.899Z,4.07
2019-05-23T11:24:17.015Z,4.23
2019-05-23T11:26:20.486Z,4.43
2019-05-23T11:28:25.558Z,3.60
2019-05-23T11:30:30.860Z,4.07
2019-05-23T11:32:34.294Z,3.87
2019-05-23T11:34:38.165Z,4.27
2019-05-23T11:36:41.664Z,4.07
2019-05-23T11:38:45.213Z,3.37
2019-05-23T11:40:48.747Z,3.70
2019-05-23T11:42:52.963Z,3.37
2019-05-23T11:44:56.780Z,3.10
2019-05-23T11:47:00.893Z,3.93
2019-05-23T11:49:05.127Z,4.00
2019-05-23T11:51:08.629Z,3.97
2019-05-23T11:53:12.217Z,3.93
2019-05-23T11:55:16.127Z,4.47
2019-05-23T11:57:19.756Z,4.47
2019-05-23T11:59:23.413Z,4.30
2019-05-23T12:01:28.836Z,4.70
2019-05-23T12:03:32.367Z,5.03
2019-05-23T12:05:35.874Z,5.17
2019-05-23T12:07:39.844Z,4.03
2019-05-23T12:09:43.399Z,4.10
2019-05-23T12:11:46.964Z,4.10
2019-05-23T12:13:50.600Z,4.40
2019-05-23T12:15:54.385Z,3.87
2019-05-23T12:17:57.893Z,4.27
2019-05-23T12:20:01.483Z,4.90
2019-05-23T12:22:05.224Z,4.30
2019-05-23T12:24:08.934Z,4.87
2019-05-23T12:26:12.509Z,4.50
2019-05-23T12:28:16.285Z,3.60
2019-05-23T12:30:21.213Z,4.03
2019-05-23T12:32:24.753Z,4.77
2019-05-23T12:34:28.712Z,4.37
2019-05-23T12:36:32.424Z,4.60
2019-05-23T12:38:40.658Z,4.30
2019-05-23T12:40:44.191Z,4.00
2019-05-23T12:42:47.751Z,3.97
2019-05-23T12:44:51.200Z,3.53
2019-05-23T12:46:54.929Z,4.50
2019-05-23T12:49:00.013Z,4.17
2019-05-23T12:51:07.619Z,3.70
2019-05-23T12:53:12.795Z,3.73
2019-05-23T12:55:16.301Z,3.90
2019-05-23T12:57:20.173Z,4.27
2019-05-23T12:59:24.061Z,3.83
2019-05-23T13:01:28.512Z,4.10
2019-05-23T13:03:32.031Z,3.93
2019-05-23T13:05:36.176Z,4.00
2019-05-23T13:07:39.675Z,3.43
2019-05-23T13:09:43.131Z,3.53
2019-05-23T13:11:46.653Z,4.10
2019-05-23T13:13:50.292Z,3.80
2019-05-23T13:15:53.800Z,3.97
2019-05-23T13:17:57.237Z,3.73
2019-05-23T13:20:00.761Z,3.67
2019-05-23T13:22:04.390Z,3.30
2019-05-23T13:24:07.983Z,3.33
2019-05-23T13:26:11.958Z,3.47
2019-05-23T13:28:15.575Z,3.70
2019-05-23T13:30:19.300Z,3.70
2019-05-23T13:32:22.742Z,3.73
2019-05-23T13:34:26.360Z,3.47
2019-05-23T13:36:29.881Z,3.63
2019-05-23T13:38:33.382Z,2.87
2019-05-23T13:40:36.967Z,2.80
2019-05-23T13:42:40.547Z,3.60
2019-05-23T13:44:44.557Z,3.03
2019-05-23T13:46:48.222Z,2.90
2019-05-23T13:48:51.816Z,3.30
2019-05-23T13:50:55.504Z,3.27
2019-05-23T13:52:59.861Z,3.20
2019-05-23T13:55:05.242Z,2.70
2019-05-23T13:57:10.562Z,3.23
2019-05-23T13:59:14.152Z,3.40
2019-05-23T14:01:21.289Z,3.50
2019-05-23T14:03:25.037Z,3.50
2019-05-23T14:05:28.911Z,2.90
2019-05-23T14:07:33.084Z,3.20
2019-05-23T14:09:37.142Z,2.90
2019-05-23T14:11:40.755Z,2.80
2019-05-23T14:13:44.204Z,2.80
2019-05-23T14:15:49.424Z,3.20
2019-05-23T14:17:52.981Z,4.00
2019-05-23T14:19:56.490Z,3.73
2019-05-23T14:22:00.176Z,3.87
2019-05-23T14:24:03.943Z,3.43
2019-05-23T14:26:08.075Z,3.20
2019-05-23T14:28:11.865Z,2.90
2019-05-23T14:30:18.655Z,2.73
2019-05-23T14:32:23.919Z,2.87
2019-05-23T14:34:27.416Z,2.83
2019-05-23T14:36:41.474Z,2.80
2019-05-23T14:38:44.951Z,3.10
2019-05-23T14:40:48.711Z,3.03
2019-05-23T14:42:53.929Z,3.30
2019-05-23T14:44:57.694Z,3.10
2019-05-23T14:47:02.834Z,3.10
2019-05-23T14:49:07.896Z,3.07
2019-05-23T14:51:13.124Z,3.20
2019-05-23T14:53:18.752Z,3.70
2019-05-23T14:55:22.772Z,2.70
2019-05-23T14:57:26.362Z,3.80
2019-05-23T14:59:30.383Z,3.50
2019-05-23T15:01:34.927Z,3.37
2019-05-23T15:03:39.086Z,3.37
2019-05-23T15:05:42.676Z,3.40
2019-05-23T15:07:46.168Z,3.17
2019-05-23T15:09:49.719Z,3.10
2019-05-23T15:11:53.581Z,3.50
2019-05-23T15:13:57.245Z,3.60
2019-05-23T15:16:00.993Z,3.07
2019-05-23T15:18:05.072Z,3.00
2019-05-23T15:20:11.868Z,2.87
2019-05-23T15:22:15.547Z,2.60
2019-05-23T15:24:19.355Z,3.23
2019-05-23T15:26:23.939Z,3.47
2019-05-23T15:28:27.988Z,3.10
2019-05-23T15:30:31.494Z,3.03
2019-05-23T15:32:35.143Z,3.43
2019-05-23T15:34:38.669Z,3.80
2019-05-23T15:36:42.160Z,3.30
2019-05-23T15:38:45.688Z,3.07
2019-05-23T15:40:49.123Z,2.80
2019-05-23T15:42:53.283Z,2.83
2019-05-23T15:44:56.736Z,3.30
2019-05-23T15:47:00.267Z,2.90
2019-05-23T15:49:05.023Z,4.50
2019-05-23T15:51:08.596Z,3.17
2019-05-23T15:53:23.479Z,3.87
2019-05-23T15:55:31.580Z,2.90
2019-05-23T15:57:39.639Z,3.63
2019-05-23T15:59:47.127Z,3.10
2019-05-23T16:01:54.816Z,3.20
2019-05-23T16:04:06.144Z,3.03
2019-05-23T16:06:11.487Z,3.10
2019-05-23T16:08:15.036Z,2.87
2019-05-23T16:10:19.024Z,2.77
2019-05-23T16:12:22.796Z,3.07
2019-05-23T16:14:26.626Z,3.10
2019-05-23T16:16:30.928Z,3.23
2019-05-23T16:18:34.699Z,2.63
2019-05-23T16:20:39.051Z,2.73
2019-05-23T16:22:42.478Z,3.10
2019-05-23T16:24:46.147Z,3.10
2019-05-23T16:26:49.847Z,3.80
2019-05-23T16:28:53.440Z,4.63
2019-05-23T16:30:57.453Z,3.33
2019-05-23T16:33:02.901Z,2.83
2019-05-23T16:35:06.764Z,2.90
2019-05-23T16:37:10.355Z,2.52
2019-05-23T16:39:13.946Z,2.50
2019-05-23T16:41:17.855Z,2.98
2019-05-23T16:43:21.275Z,3.08
2019-05-23T16:45:24.869Z,3.00
2019-05-23T16:47:28.695Z,3.05
2019-05-23T16:49:32.133Z,3.05
2019-05-23T16:51:35.653Z,2.95
2019-05-23T16:53:39.728Z,3.40
2019-05-23T16:55:53.585Z,3.20
2019-05-23T16:57:58.656Z,2.80
2019-05-23T17:00:22.234Z,2.53
2019-05-23T17:02:29.976Z,3.27
2019-05-23T17:04:44.092Z,3.50
2019-05-23T17:06:49.220Z,3.37
2019-05-23T17:08:57.290Z,2.90
2019-05-23T17:11:07.067Z,2.90
2019-05-23T17:13:27.931Z,3.00
2019-05-23T17:15:36.274Z,3.27
2019-05-23T17:18:01.534Z,3.20
2019-05-23T17:19:51.470Z,3.00
2019-05-23T17:22:02.663Z,3.10
2019-05-23T17:24:07.838Z,3.07
2019-05-23T17:26:21.460Z,3.30
2019-05-23T17:28:35.917Z,3.07
2019-05-23T17:30:43.984Z,2.60
2019-05-23T17:32:47.580Z,2.57
2019-05-23T17:34:51.197Z,3.10
2019-05-23T17:36:54.815Z,3.00
2019-05-23T17:38:58.281Z,2.97
2019-05-23T17:41:02.112Z,2.70
2019-05-23T17:43:05.752Z,2.40
2019-05-23T17:45:09.283Z,3.10
2019-05-23T17:47:12.713Z,2.80
2019-05-23T17:49:16.525Z,3.17
2019-05-23T17:51:20.035Z,3.33
2019-05-23T17:53:23.788Z,2.70
2019-05-23T17:55:28.059Z,2.93
2019-05-23T17:57:32.023Z,3.30
2019-05-23T17:59:35.478Z,2.80
2019-05-23T18:01:39.826Z,3.27
2019-05-23T18:03:43.535Z,2.90
2019-05-23T18:05:47.423Z,2.70
2019-05-23T18:07:51.296Z,3.07
2019-05-23T18:09:55.416Z,11.57
2019-05-23T18:11:59.253Z,12.47
2019-05-23T18:14:03.822Z,9.70
2019-05-23T18:16:08.070Z,10.13
2019-05-23T18:18:11.856Z,4.30
2019-05-23T18:20:16.190Z,2.90
2019-05-23T18:22:20.388Z,3.03
2019-05-23T18:24:23.909Z,4.33
2019-05-23T18:26:27.524Z,5.23
2019-05-23T18:28:31.251Z,3.40
2019-05-23T18:30:42.801Z,3.00
2019-05-23T18:32:46.310Z,2.50
2019-05-23T18:34:49.972Z,2.60
2019-05-23T18:36:53.743Z,2.50
2019-05-23T18:38:57.467Z,2.40
2019-05-23T18:41:05.603Z,2.57
2019-05-23T18:43:07.658Z,2.47
2019-05-23T18:45:11.723Z,2.23
2019-05-23T18:47:25.537Z,2.33
2019-05-23T18:49:31.769Z,2.30
2019-05-23T18:51:35.292Z,2.83
2019-05-23T18:53:39.052Z,2.20
2019-05-23T18:55:42.725Z,2.97
2019-05-23T18:57:46.295Z,2.53
2019-05-23T18:59:49.885Z,2.33
2019-05-23T19:01:53.465Z,2.33
2019-05-23T19:03:56.982Z,1.77
2019-05-23T19:06:00.580Z,2.60
2019-05-23T19:08:04.849Z,2.53
2019-05-23T19:10:10.096Z,2.40
2019-05-23T19:12:13.871Z,1.90
2019-05-23T19:14:17.390Z,1.80
2019-05-23T19:16:20.999Z,2.33
2019-05-23T19:18:24.689Z,2.10
2019-05-23T19:20:28.404Z,2.60
2019-05-23T19:22:31.923Z,2.60
2019-05-23T19:24:39.096Z,2.63
2019-05-23T19:26:42.936Z,2.50
2019-05-23T19:28:46.437Z,2.97
2019-05-23T19:30:50.278Z,2.97
2019-05-23T19:32:54.475Z,2.70
2019-05-23T19:34:58.547Z,2.30
2019-05-23T19:37:02.638Z,2.90
2019-05-23T19:39:07.193Z,3.07
2019-05-23T19:41:12.539Z,2.60
2019-05-23T19:43:17.424Z,2.60
2019-05-23T19:45:21.183Z,2.60
2019-05-23T19:47:24.970Z,2.73
2019-05-23T19:49:28.478Z,2.43
2019-05-23T19:51:31.985Z,2.37
2019-05-23T19:53:36.297Z,2.40
2019-05-23T19:55:40.513Z,2.77
2019-05-23T19:57:44.048Z,2.30
2019-05-23T19:59:47.478Z,2.27
2019-05-23T20:01:58.523Z,2.10
2019-05-23T20:04:03.727Z,2.40
2019-05-23T20:06:08.173Z,2.40
2019-05-23T20:08:12.089Z,2.20
2019-05-23T20:10:16.298Z,3.20
2019-05-23T20:12:19.905Z,2.13
2019-05-23T20:14:23.434Z,2.63
2019-05-23T20:16:27.062Z,2.50
2019-05-23T20:18:30.724Z,2.20
2019-05-23T20:20:35.001Z,2.40
2019-05-23T20:22:38.565Z,2.20
2019-05-23T20:24:42.052Z,2.70
2019-05-23T20:26:45.475Z,2.70
2019-05-23T20:28:49.010Z,2.20
2019-05-23T20:30:52.791Z,2.43
2019-05-23T20:32:56.577Z,2.30
2019-05-23T20:35:00.022Z,2.60
2019-05-23T20:37:03.784Z,2.60
2019-05-23T20:39:07.712Z,2.40
2019-05-23T20:41:11.280Z,2.33
2019-05-23T20:43:14.947Z,2.60
2019-05-23T20:45:18.461Z,2.20
2019-05-23T20:47:22.385Z,3.27
2019-05-23T20:49:27.389Z,3.50
2019-05-23T20:51:32.480Z,2.53
2019-05-23T20:53:36.023Z,2.70
2019-05-23T20:55:39.510Z,2.70
2019-05-23T20:57:43.061Z,3.33
2019-05-23T20:59:46.789Z,2.80
2019-05-23T21:01:50.617Z,3.43
2019-05-23T21:03:54.511Z,2.70
2019-05-23T21:05:58.092Z,2.77
2019-05-23T21:08:05.002Z,3.00
2019-05-23T21:10:08.977Z,2.10
2019-05-23T21:12:28.376Z,2.77
2019-05-23T21:14:18.086Z,2.80
2019-05-23T21:16:21.592Z,2.40
2019-05-23T21:18:25.012Z,2.40
2019-05-23T21:20:28.734Z,2.40
2019-05-23T21:22:32.431Z,2.80
2019-05-23T21:24:35.995Z,3.00
2019-05-23T21:26:39.547Z,2.53
2019-05-23T21:28:43.059Z,2.87
2019-05-23T21:30:46.569Z,2.90
2019-05-23T21:32:50.175Z,2.70
2019-05-23T21:34:53.672Z,2.80
2019-05-23T21:36:57.179Z,2.50
2019-05-23T21:39:00.663Z,2.70
2019-05-23T21:41:04.204Z,2.60
2019-05-23T21:43:07.842Z,2.30
2019-05-23T21:45:11.408Z,2.60
2019-05-23T21:47:16.706Z,2.60
2019-05-23T21:49:20.269Z,2.60
2019-05-23T21:51:24.012Z,2.73
2019-05-23T21:53:27.605Z,2.40
2019-05-23T21:55:36.336Z,2.70
2019-05-23T21:57:39.784Z,2.80
2019-05-23T21:59:43.213Z,2.93
2019-05-23T22:01:54.282Z,2.60
2019-05-23T22:04:08.579Z,2.40
2019-05-23T22:06:14.414Z,2.57
2019-05-23T22:08:18.109Z,3.03
2019-05-23T22:10:21.616Z,2.93
2019-05-23T22:12:25.243Z,2.80
2019-05-23T22:14:28.803Z,2.43
2019-05-23T22:16:32.440Z,3.40
2019-05-23T22:18:36.116Z,2.80
2019-05-23T22:20:39.594Z,3.07
2019-05-23T22:22:43.048Z,3.50
2019-05-23T22:24:46.563Z,3.30
2019-05-23T22:26:50.271Z,3.80
2019-05-23T22:28:54.252Z,4.20
2019-05-23T22:30:57.752Z,4.37
2019-05-23T22:33:01.202Z,4.30
2019-05-23T22:35:06.704Z,4.00
2019-05-23T22:37:11.832Z,3.53
2019-05-23T22:39:15.428Z,3.13
2019-05-23T22:41:18.984Z,3.57
2019-05-23T22:43:23.015Z,3.73
2019-05-23T22:45:27.512Z,3.17
2019-05-23T22:47:31.032Z,3.13
2019-05-23T22:49:34.479Z,3.20
2019-05-23T22:51:37.993Z,2.73
2019-05-23T22:53:41.447Z,3.57
2019-05-23T22:55:45.259Z,3.33
2019-05-23T22:57:48.885Z,3.30
2019-05-23T22:59:52.404Z,2.63
2019-05-23T23:01:55.907Z,3.30
2019-05-23T23:03:59.341Z,2.70
2019-05-23T23:06:02.943Z,3.07
2019-05-23T23:08:06.647Z,3.57
2019-05-23T23:10:10.340Z,3.20
2019-05-23T23:12:13.837Z,3.33
2019-05-23T23:14:17.487Z,2.93
2019-05-23T23:16:20.992Z,3.37
2019-05-23T23:18:26.192Z,3.20
2019-05-23T23:20:29.664Z,3.27
2019-05-23T23:22:33.462Z,3.30
2019-05-23T23:24:37.115Z,3.17
2019-05-23T23:26:40.610Z,3.53
2019-05-23T23:28:44.144Z,4.03
2019-05-23T23:30:49.412Z,3.80
2019-05-23T23:32:52.897Z,3.60
2019-05-23T23:34:56.360Z,3.53
2019-05-23T23:36:59.924Z,3.30
2019-05-23T23:39:04.620Z,3.13
2019-05-23T23:41:08.184Z,3.27
2019-05-23T23:43:11.688Z,3.10
2019-05-23T23:45:32.897Z,3.23
2019-05-23T23:47:54.079Z,3.30
2019-05-23T23:50:15.566Z,3.30
2019-05-23T23:52:37.016Z,3.10
2019-05-23T23:54:58.274Z,3.43
2019-05-23T23:57:19.641Z,3.57
2019-05-23T23:59:22.626Z,3.30
